الصفحة الرئيسية
METAR-TAF:

METAR-TAF

مطار :

مطار معيتيقة الدولي

طرابلس, ليبيا

دائرة عرض: 32-54N, خط طول: 13-17E, ارتفاع: 11 متر

مراقبة الطقس الحالي

تاريخ ووقت الإصدار 27 دقيقة قبل الساعة 01:50UTC
ريح 5 عقدة من الجنوب الشرقي
درجة الحرارة 18°درجة مئوية
الرطوبة 83%
ضغط 1019 hPa
الرؤية: 6000 متر
غيوم قليلة على ارتفاع 2500 قدم

METAR: HLLM 240150Z 14005KT 6000 FEW025 18/15 Q1019

زمن: 04:17 (02:17 UTC)

توقعات

تاريخ ووقت الإصدار 3ساعات و 17 دقيقة قبل الساعة 23:00UTC
التوقعات صالحة من24 الساعة 00 UTC إلى 24 الساعة 24 UTC
ريح 2 عقدةمن اتجاهات متغيرة
الرؤية: 8000 متر
غيوم قليلة على ارتفاع 2500 قدم
أصبح
من 24 الساعة 09 UTC إلى 24 الساعة 11 UTC
ريح 10 عقدة من الشرق/الشمال الشرقي
الرؤية 10 كم أو أكثر
الغيوم لا تقل 1500 م ولا وجود لمزنة ركامية السحاب الأسود

TAF: HLLM 232300Z 2400/2424 VRB02KT 8000 FEW025 BECMG 2409/2411 06010KT CAVOK

أرصاد الطقس والتوقعات من أكثر من 4000 مطار (تقارير الطقس للمطار METAR والتنبؤ بالطقس بالمطارTAF).

المحطات المتاحة هي النقط الصفراء والحمراء على الخريطة.

حرك المؤشر فوق النقطة لمعرفة اسم المحطة.

ثم انقر لمعرفة أرصاد وتوقعات الطقس.

لتغيير الخارطة: اضغط على الأزرار الخضراء مع رمز الصليب الأسود للتكبير. على الزر الأخضر مع شرطة للتصغير، أو على الأسهم الخضراء للخرائط المجاورة.


METAR-TAF: